createdAt,value
2017-01-21T00:00:35.970Z,2
2017-01-21T00:01:41.999Z,2
2017-01-21T00:02:48.017Z,2
2017-01-21T00:03:54.027Z,2
2017-01-21T00:05:00.057Z,2
2017-01-21T00:06:06.070Z,1.9
2017-01-21T00:07:12.085Z,2
2017-01-21T00:08:18.109Z,2
2017-01-21T00:09:24.133Z,2
2017-01-21T00:10:30.153Z,2
2017-01-21T00:11:36.169Z,2.1
2017-01-21T00:12:42.185Z,2.1
2017-01-21T00:13:48.203Z,2.1
2017-01-21T00:14:54.221Z,2.1
2017-01-21T00:16:00.245Z,2.1
2017-01-21T00:17:06.267Z,2.2
2017-01-21T00:18:12.295Z,2.2
2017-01-21T00:19:18.313Z,2.2
2017-01-21T00:20:24.336Z,2.2
2017-01-21T00:21:30.354Z,2.2
2017-01-21T00:22:36.373Z,2.2
2017-01-21T00:23:42.394Z,2.2
2017-01-21T00:24:48.414Z,2.2
2017-01-21T00:25:54.430Z,2.2
2017-01-21T00:27:00.461Z,2.1
2017-01-21T00:28:06.483Z,2.2
2017-01-21T00:29:12.503Z,2.3
2017-01-21T00:30:18.533Z,2.3
2017-01-21T00:31:24.552Z,2.3
2017-01-21T00:32:30.572Z,2.3
2017-01-21T00:33:36.601Z,2.3
2017-01-21T00:34:42.615Z,2.3
2017-01-21T00:35:48.641Z,2.3
2017-01-21T00:36:54.668Z,2.3
2017-01-21T00:38:00.693Z,2.4
2017-01-21T00:39:06.712Z,2.3
2017-01-21T00:40:12.726Z,2.3
2017-01-21T00:41:18.748Z,2.2
2017-01-21T00:42:24.773Z,2.1
2017-01-21T00:43:30.798Z,2.1
2017-01-21T00:44:36.815Z,2.2
2017-01-21T00:45:42.840Z,2.3
2017-01-21T00:46:48.860Z,2.3
2017-01-21T00:47:54.874Z,2.4
2017-01-21T00:49:00.901Z,2.4
2017-01-21T00:50:06.919Z,2.3
2017-01-21T00:51:12.928Z,2.3
2017-01-21T00:52:18.951Z,2.4
2017-01-21T00:53:24.978Z,2.3
2017-01-21T00:54:30.989Z,2.3
2017-01-21T00:55:37.014Z,2.2
2017-01-21T00:56:43.042Z,2.3
2017-01-21T00:57:49.077Z,2.3
2017-01-21T00:58:55.081Z,2.3
2017-01-21T01:00:01.111Z,2.3
2017-01-21T01:01:07.130Z,2.4
2017-01-21T01:02:13.141Z,2.2
2017-01-21T01:03:19.156Z,2.3
2017-01-21T01:04:25.183Z,2.4
2017-01-21T01:05:31.196Z,2.5
2017-01-21T01:06:37.227Z,2.5
2017-01-21T01:07:43.245Z,2.4
2017-01-21T01:08:49.277Z,2.4
2017-01-21T01:09:55.287Z,2.5
2017-01-21T01:11:01.313Z,2.5
2017-01-21T01:12:07.345Z,2.6
2017-01-21T01:13:13.347Z,2.5
2017-01-21T01:14:19.371Z,2.5
2017-01-21T01:15:25.393Z,2.5
2017-01-21T01:16:31.414Z,2.4
2017-01-21T01:17:37.428Z,2.4
2017-01-21T01:18:43.452Z,2.4
2017-01-21T01:19:49.472Z,2.5
2017-01-21T01:20:55.501Z,2.6
2017-01-21T01:22:01.525Z,2.6
2017-01-21T01:23:07.542Z,2.6
2017-01-21T01:24:13.563Z,2.6
2017-01-21T01:25:19.588Z,2.5
2017-01-21T01:26:25.610Z,2.5
2017-01-21T01:27:31.626Z,2.5
2017-01-21T01:28:37.647Z,2.4
2017-01-21T01:29:43.670Z,2.4
2017-01-21T01:30:49.690Z,2.5
2017-01-21T01:31:55.705Z,2.5
2017-01-21T01:33:01.728Z,2.5
2017-01-21T01:34:07.754Z,2.5
2017-01-21T01:35:13.770Z,2.5
2017-01-21T01:36:19.782Z,2.5
2017-01-21T01:37:25.801Z,2.5
2017-01-21T01:38:31.826Z,2.5
2017-01-21T01:39:37.860Z,2.4
2017-01-21T01:40:43.872Z,2.5
2017-01-21T01:41:49.889Z,2.5
2017-01-21T01:42:55.907Z,2.4
2017-01-21T01:44:01.923Z,2.5
2017-01-21T01:45:07.944Z,2.4
2017-01-21T01:46:13.965Z,2.5
2017-01-21T01:47:19.995Z,2.4
2017-01-21T01:48:26.013Z,2.4
2017-01-21T01:49:32.022Z,2.5
2017-01-21T01:50:38.036Z,2.5
2017-01-21T01:51:44.064Z,2.6
2017-01-21T01:52:50.088Z,2.6
2017-01-21T01:53:56.103Z,2.6
2017-01-21T01:55:02.132Z,2.6
2017-01-21T01:56:07.055Z,2.6
2017-01-21T01:57:13.079Z,2.7
2017-01-21T01:58:19.091Z,2.6
2017-01-21T01:59:25.115Z,2.6
2017-01-21T02:00:31.137Z,2.6
2017-01-21T02:01:37.158Z,2.6
2017-01-21T02:02:43.175Z,2.6
2017-01-21T02:03:49.193Z,2.5
2017-01-21T02:04:55.208Z,2.6
2017-01-21T02:06:01.230Z,2.6
2017-01-21T02:07:07.252Z,2.6
2017-01-21T02:08:13.277Z,2.7
2017-01-21T02:09:19.298Z,2.5
2017-01-21T02:10:25.315Z,2.5
2017-01-21T02:11:31.335Z,2.5
2017-01-21T02:12:37.359Z,2.5
2017-01-21T02:13:43.386Z,2.5
2017-01-21T02:14:49.405Z,2.5
2017-01-21T02:15:55.418Z,2.6
2017-01-21T02:17:01.445Z,2.5
2017-01-21T02:18:07.457Z,2.6
2017-01-21T02:19:13.474Z,2.7
2017-01-21T02:20:19.492Z,2.6
2017-01-21T02:21:25.521Z,2.6
2017-01-21T02:22:31.536Z,2.6
2017-01-21T02:23:37.561Z,2.7
2017-01-21T02:24:43.581Z,2.7
2017-01-21T02:25:49.608Z,2.7
2017-01-21T02:26:55.635Z,2.6
2017-01-21T02:28:01.646Z,2.6
2017-01-21T02:29:07.671Z,2.7
2017-01-21T02:30:13.684Z,2.7
2017-01-21T02:31:19.697Z,2.6
2017-01-21T02:32:25.716Z,2.7
2017-01-21T02:33:31.731Z,2.7
2017-01-21T02:34:37.751Z,2.7
2017-01-21T02:35:43.771Z,2.8
2017-01-21T02:36:49.800Z,2.6
2017-01-21T02:37:55.817Z,2.6
2017-01-21T02:39:01.838Z,2.6
2017-01-21T02:40:07.860Z,2.6
2017-01-21T02:41:13.872Z,2.6
2017-01-21T02:42:19.889Z,2.6
2017-01-21T02:43:25.913Z,2.7
2017-01-21T02:44:31.940Z,2.7
2017-01-21T02:45:37.954Z,2.7
2017-01-21T02:46:43.983Z,2.7
2017-01-21T02:47:50.001Z,2.7
2017-01-21T02:48:56.026Z,2.6
2017-01-21T02:50:02.037Z,2.7
2017-01-21T02:51:08.057Z,2.7
2017-01-21T02:52:14.079Z,2.7
2017-01-21T02:53:20.101Z,2.6
2017-01-21T02:54:26.124Z,2.5
2017-01-21T02:55:32.147Z,2.6
2017-01-21T02:56:38.172Z,2.7
2017-01-21T02:57:44.204Z,2.7
2017-01-21T02:58:50.214Z,2.6
2017-01-21T02:59:56.227Z,2.7
2017-01-21T03:01:02.251Z,2.7
2017-01-21T03:02:08.273Z,2.8
2017-01-21T03:03:14.294Z,2.7
2017-01-21T03:04:20.317Z,2.7
2017-01-21T03:05:26.342Z,2.7
2017-01-21T03:06:32.370Z,2.7
2017-01-21T03:07:38.389Z,2.7
2017-01-21T03:08:44.414Z,2.7
2017-01-21T03:09:50.435Z,2.7
2017-01-21T03:10:56.457Z,2.7
2017-01-21T03:12:02.475Z,2.6
2017-01-21T03:13:08.499Z,2.7
2017-01-21T03:14:14.516Z,2.7
2017-01-21T03:15:20.532Z,2.6
2017-01-21T03:16:26.557Z,2.7
2017-01-21T03:17:32.582Z,2.7
2017-01-21T03:18:38.600Z,2.7
2017-01-21T03:19:44.620Z,2.6
2017-01-21T03:20:50.638Z,2.7
2017-01-21T03:21:56.658Z,2.8
2017-01-21T03:23:02.691Z,2.8
2017-01-21T03:24:08.715Z,2.8
2017-01-21T03:25:14.733Z,2.8
2017-01-21T03:26:20.754Z,2.8
2017-01-21T03:27:26.779Z,2.8
2017-01-21T03:28:32.802Z,2.7
2017-01-21T03:29:38.817Z,2.7
2017-01-21T03:30:44.838Z,2.7
2017-01-21T03:31:50.859Z,2.7
2017-01-21T03:32:56.880Z,2.8
2017-01-21T03:34:02.905Z,2.8
2017-01-21T03:35:08.927Z,2.8
2017-01-21T03:36:14.948Z,2.8
2017-01-21T03:37:20.962Z,2.8
2017-01-21T03:38:26.978Z,2.8
2017-01-21T03:39:32.992Z,2.8
2017-01-21T03:40:39.014Z,2.9
2017-01-21T03:41:45.044Z,2.9
2017-01-21T03:42:51.066Z,2.9
2017-01-21T03:43:57.082Z,2.8
2017-01-21T03:45:03.112Z,2.8
2017-01-21T03:46:09.127Z,2.9
2017-01-21T03:47:15.147Z,3
2017-01-21T03:48:21.163Z,2.9
2017-01-21T03:49:27.186Z,2.9
2017-01-21T03:50:33.199Z,2.8
2017-01-21T03:51:39.219Z,2.8
2017-01-21T03:52:45.247Z,2.8
2017-01-21T03:53:51.272Z,2.8
2017-01-21T03:54:57.284Z,2.8
2017-01-21T03:56:03.304Z,2.8
2017-01-21T03:57:09.326Z,2.8
2017-01-21T03:58:15.342Z,2.9
2017-01-21T03:59:21.359Z,2.9
2017-01-21T04:00:27.378Z,2.9
2017-01-21T04:01:33.399Z,2.9
2017-01-21T04:02:39.421Z,2.9
2017-01-21T04:03:45.439Z,2.8
2017-01-21T04:04:51.467Z,2.9
2017-01-21T04:05:57.479Z,2.9
2017-01-21T04:07:03.492Z,2.8
2017-01-21T04:08:09.514Z,2.8
2017-01-21T04:09:15.537Z,2.8
2017-01-21T04:10:21.557Z,2.8
2017-01-21T04:11:27.573Z,2.8
2017-01-21T04:12:33.595Z,2.8
2017-01-21T04:13:39.605Z,2.7
2017-01-21T04:14:45.633Z,2.7
2017-01-21T04:15:51.659Z,2.7
2017-01-21T04:16:57.681Z,2.6
2017-01-21T04:18:03.694Z,2.7
2017-01-21T04:19:09.710Z,2.8
2017-01-21T04:20:15.742Z,2.7
2017-01-21T04:21:21.761Z,2.8
2017-01-21T04:22:27.789Z,2.8
2017-01-21T04:23:33.802Z,2.9
2017-01-21T04:24:39.830Z,2.9
2017-01-21T04:25:45.850Z,2.7
2017-01-21T04:26:51.867Z,2.7
2017-01-21T04:27:57.878Z,2.8
2017-01-21T04:29:03.901Z,2.7
2017-01-21T04:30:09.925Z,2.8
2017-01-21T04:31:15.952Z,2.8
2017-01-21T04:32:21.970Z,2.8
2017-01-21T04:33:27.989Z,2.7
2017-01-21T04:34:34.015Z,2.7
2017-01-21T04:35:40.042Z,2.8
2017-01-21T04:36:46.059Z,2.8
2017-01-21T04:37:52.079Z,2.7
2017-01-21T04:38:58.099Z,2.8
2017-01-21T04:40:04.121Z,2.8
2017-01-21T04:41:10.134Z,2.7
2017-01-21T04:42:16.159Z,2.7
2017-01-21T04:43:22.183Z,2.6
2017-01-21T04:44:28.197Z,2.6
2017-01-21T04:45:34.218Z,2.8
2017-01-21T04:46:40.241Z,2.8
2017-01-21T04:47:46.262Z,2.9
2017-01-21T04:48:52.278Z,2.9
2017-01-21T04:49:58.304Z,2.9
2017-01-21T04:51:04.325Z,2.9
2017-01-21T04:52:10.355Z,2.9
2017-01-21T04:53:16.360Z,2.9
2017-01-21T04:54:22.379Z,2.8
2017-01-21T04:55:28.399Z,2.9
2017-01-21T04:56:34.422Z,2.8
2017-01-21T04:57:40.441Z,2.8
2017-01-21T04:58:46.468Z,2.9
2017-01-21T04:59:52.481Z,3
2017-01-21T05:00:58.499Z,2.9
2017-01-21T05:02:04.517Z,2.9
2017-01-21T05:03:10.539Z,3
2017-01-21T05:04:16.544Z,3
2017-01-21T05:05:22.562Z,3
2017-01-21T05:06:28.579Z,3
2017-01-21T05:07:34.596Z,3
2017-01-21T05:08:40.621Z,3
2017-01-21T05:09:46.650Z,2.9
2017-01-21T05:10:52.665Z,2.9
2017-01-21T05:11:58.682Z,2.8
2017-01-21T05:13:04.712Z,2.9
2017-01-21T05:14:10.727Z,2.9
2017-01-21T05:15:16.745Z,3
2017-01-21T05:16:22.763Z,3
2017-01-21T05:17:28.792Z,3
2017-01-21T05:18:34.812Z,3
2017-01-21T05:19:40.830Z,2.9
2017-01-21T05:20:46.850Z,2.9
2017-01-21T05:21:52.867Z,2.8
2017-01-21T05:22:58.893Z,2.8
2017-01-21T05:24:04.918Z,2.9
2017-01-21T05:25:10.933Z,2.9
2017-01-21T05:26:16.958Z,2.9
2017-01-21T05:27:22.971Z,2.9
2017-01-21T05:28:28.989Z,2.9
2017-01-21T05:29:35.016Z,2.9
2017-01-21T05:30:41.049Z,2.9
2017-01-21T05:31:47.060Z,3
2017-01-21T05:32:53.076Z,3
2017-01-21T05:33:59.098Z,3
2017-01-21T05:35:05.123Z,3.1
2017-01-21T05:36:11.139Z,3
2017-01-21T05:37:17.166Z,3
2017-01-21T05:38:23.188Z,2.9
2017-01-21T05:39:29.210Z,3
2017-01-21T05:40:35.233Z,3
2017-01-21T05:41:41.250Z,3
2017-01-21T05:42:47.270Z,3
2017-01-21T05:43:53.290Z,3.1
2017-01-21T05:44:59.323Z,3.1
2017-01-21T05:46:05.332Z,3.1
2017-01-21T05:47:11.347Z,3.1
2017-01-21T05:48:17.369Z,3
2017-01-21T05:49:23.390Z,3
2017-01-21T05:50:29.413Z,3.1
2017-01-21T05:51:35.431Z,3
2017-01-21T05:52:41.449Z,3
2017-01-21T05:53:47.474Z,3
2017-01-21T05:54:53.491Z,3
2017-01-21T05:55:59.501Z,3.1
2017-01-21T05:57:05.521Z,3
2017-01-21T05:58:11.546Z,3
2017-01-21T05:59:17.579Z,3.1
2017-01-21T06:00:22.504Z,3.1
2017-01-21T06:01:28.519Z,3.1
2017-01-21T06:02:34.545Z,3.1
2017-01-21T06:03:40.564Z,3.1
2017-01-21T06:04:46.584Z,3
2017-01-21T06:05:52.599Z,3
2017-01-21T06:06:58.622Z,3
2017-01-21T06:08:04.652Z,3
2017-01-21T06:09:10.659Z,3
2017-01-21T06:10:16.686Z,3.1
2017-01-21T06:11:22.705Z,3.1
2017-01-21T06:12:28.727Z,3
2017-01-21T06:13:34.744Z,3.1
2017-01-21T06:14:40.775Z,3
2017-01-21T06:15:46.792Z,3
2017-01-21T06:16:52.807Z,3
2017-01-21T06:17:58.838Z,3
2017-01-21T06:19:04.858Z,3
2017-01-21T06:20:10.882Z,3
2017-01-21T06:21:16.896Z,3.1
2017-01-21T06:22:22.930Z,3.1
2017-01-21T06:23:28.948Z,3.1
2017-01-21T06:24:34.967Z,3
2017-01-21T06:25:41.028Z,3.1
2017-01-21T06:26:47.170Z,3.1
2017-01-21T06:27:53.191Z,3
2017-01-21T06:28:59.218Z,2.9
2017-01-21T06:30:05.236Z,3
2017-01-21T06:31:11.254Z,3
2017-01-21T06:32:17.390Z,3
2017-01-21T06:33:23.416Z,3
2017-01-21T06:34:29.647Z,3
2017-01-21T06:35:35.665Z,3
2017-01-21T06:36:41.689Z,3.1
2017-01-21T06:37:47.715Z,3.1
2017-01-21T06:38:53.733Z,3.1
2017-01-21T06:39:59.755Z,3.1
2017-01-21T06:41:05.778Z,2.9
2017-01-21T06:42:11.788Z,3
2017-01-21T06:43:17.808Z,3
2017-01-21T06:44:23.830Z,3
2017-01-21T06:45:29.858Z,3.1
2017-01-21T06:46:35.879Z,3
2017-01-21T06:47:41.900Z,3.1
2017-01-21T06:48:47.927Z,3.1
2017-01-21T06:49:53.955Z,3.1
2017-01-21T06:50:59.970Z,3.2
2017-01-21T06:52:05.997Z,3.2
2017-01-21T06:53:12.011Z,3.1
2017-01-21T06:54:18.028Z,3.1
2017-01-21T06:55:24.048Z,3.1
2017-01-21T06:56:30.071Z,3.1
2017-01-21T06:57:36.089Z,3.2
2017-01-21T06:58:42.115Z,3.2
2017-01-21T06:59:48.137Z,3.1
2017-01-21T07:00:54.158Z,3.1
2017-01-21T07:02:00.173Z,3.2
2017-01-21T07:03:06.199Z,3.2
2017-01-21T07:04:12.217Z,3.1
2017-01-21T07:05:18.242Z,3
2017-01-21T07:06:24.265Z,3
2017-01-21T07:07:30.290Z,3
2017-01-21T07:08:36.305Z,3.1
2017-01-21T07:09:42.328Z,3.2
2017-01-21T07:10:48.350Z,3.2
2017-01-21T07:11:54.361Z,3.1
2017-01-21T07:13:00.378Z,3.1
2017-01-21T07:14:06.402Z,3.2
2017-01-21T07:15:12.423Z,3.2
2017-01-21T07:16:18.446Z,3.1
2017-01-21T07:17:24.471Z,3.2
2017-01-21T07:18:30.497Z,3.2
2017-01-21T07:19:36.516Z,3.2
2017-01-21T07:20:42.534Z,3.3
2017-01-21T07:21:48.556Z,3.4
2017-01-21T07:22:54.576Z,3.3
2017-01-21T07:24:00.591Z,3.3
2017-01-21T07:25:06.613Z,3.2
2017-01-21T07:26:12.634Z,3.2
2017-01-21T07:27:18.662Z,3.1
2017-01-21T07:28:24.673Z,3.1
2017-01-21T07:29:30.693Z,3.1
2017-01-21T07:30:36.717Z,3.2
2017-01-21T07:31:42.746Z,3.3
2017-01-21T07:32:48.758Z,3.4
2017-01-21T07:33:54.779Z,3.4
2017-01-21T07:35:00.796Z,3.4
2017-01-21T07:36:06.820Z,3.4
2017-01-21T07:37:12.837Z,3.4
2017-01-21T07:38:18.862Z,3.4
2017-01-21T07:39:24.885Z,3.3
2017-01-21T07:40:30.894Z,3.3
2017-01-21T07:41:36.908Z,3.3
2017-01-21T07:42:42.929Z,3.3
2017-01-21T07:43:48.953Z,3.3
2017-01-21T07:44:54.975Z,3.3
2017-01-21T07:46:00.995Z,3.3
2017-01-21T07:47:07.018Z,3.2
2017-01-21T07:48:13.044Z,3.2
2017-01-21T07:49:19.056Z,3.2
2017-01-21T07:50:25.085Z,3.2
2017-01-21T07:51:31.101Z,3.2
2017-01-21T07:52:37.120Z,3.2
2017-01-21T07:53:43.139Z,3.2
2017-01-21T07:54:49.155Z,3.2
2017-01-21T07:55:55.173Z,3.2
2017-01-21T07:57:01.199Z,3.3
2017-01-21T07:58:07.216Z,3.3
2017-01-21T07:59:13.235Z,3.3
2017-01-21T08:00:19.253Z,3.3
2017-01-21T08:01:25.280Z,3.3
2017-01-21T08:02:31.295Z,3.2
2017-01-21T08:03:37.312Z,3.3
2017-01-21T08:04:43.338Z,3.2
2017-01-21T08:05:49.369Z,3.2
2017-01-21T08:06:55.384Z,3.2
2017-01-21T08:08:01.401Z,3.3
2017-01-21T08:09:07.427Z,3.2
2017-01-21T08:10:13.438Z,3.3
2017-01-21T08:11:19.457Z,3.4
2017-01-21T08:12:25.479Z,3.3
2017-01-21T08:13:31.503Z,3.4
2017-01-21T08:14:37.515Z,3.2
2017-01-21T08:15:43.536Z,3.2
2017-01-21T08:16:49.560Z,3.3
2017-01-21T08:17:55.591Z,3.4
2017-01-21T08:19:01.611Z,3.3
2017-01-21T08:20:07.634Z,3.3
2017-01-21T08:21:13.661Z,3.3
2017-01-21T08:22:19.669Z,3.4
2017-01-21T08:23:25.683Z,3.5
2017-01-21T08:24:31.699Z,3.4
2017-01-21T08:25:37.720Z,3.3
2017-01-21T08:26:43.743Z,3.3
2017-01-21T08:27:49.766Z,3.4
2017-01-21T08:28:55.786Z,3.4
2017-01-21T08:30:01.969Z,3.5
2017-01-21T08:31:07.989Z,3.5
2017-01-21T08:32:14.030Z,3.4
2017-01-21T08:33:20.049Z,3.4
2017-01-21T08:34:26.075Z,3.4
2017-01-21T08:35:32.100Z,3.5
2017-01-21T08:36:38.118Z,3.6
2017-01-21T08:37:44.142Z,3.4
2017-01-21T08:38:50.187Z,3.5
2017-01-21T08:39:56.203Z,3.7
2017-01-21T08:41:02.242Z,3.7
2017-01-21T08:42:08.253Z,3.7
2017-01-21T08:43:14.276Z,3.7
2017-01-21T08:44:20.299Z,3.7
2017-01-21T08:45:26.317Z,3.8
2017-01-21T08:46:32.344Z,3.7
2017-01-21T08:47:38.366Z,3.7
2017-01-21T08:48:44.392Z,3.8
2017-01-21T08:49:50.414Z,3.7
2017-01-21T08:50:56.432Z,3.7
2017-01-21T08:52:02.451Z,3.7
2017-01-21T08:53:08.475Z,3.6
2017-01-21T08:54:14.499Z,3.7
2017-01-21T08:55:20.513Z,3.6
2017-01-21T08:56:26.535Z,3.7
2017-01-21T08:57:32.556Z,3.8
2017-01-21T08:58:38.579Z,3.9
2017-01-21T08:59:44.604Z,3.9
2017-01-21T09:00:50.616Z,3.9
2017-01-21T09:01:56.638Z,4
2017-01-21T09:03:02.656Z,4
2017-01-21T09:04:08.679Z,3.9
2017-01-21T09:05:14.695Z,3.7
2017-01-21T09:06:20.715Z,3.7
2017-01-21T09:07:26.732Z,3.8
2017-01-21T09:08:32.755Z,3.9
2017-01-21T09:09:38.780Z,3.7
2017-01-21T09:10:44.799Z,3.7
2017-01-21T09:11:50.822Z,3.7
2017-01-21T09:12:56.846Z,3.9
2017-01-21T09:14:02.868Z,3.9
2017-01-21T09:15:08.890Z,4
2017-01-21T09:16:14.912Z,4
2017-01-21T09:17:20.925Z,4.1
2017-01-21T09:18:26.959Z,4.1
2017-01-21T09:19:32.970Z,4
2017-01-21T09:20:38.990Z,4
2017-01-21T09:21:45.002Z,4.1
2017-01-21T09:22:51.031Z,3.9
2017-01-21T09:23:57.057Z,3.8
2017-01-21T09:25:03.078Z,3.9
2017-01-21T09:26:09.109Z,4.1
2017-01-21T09:27:15.127Z,4.2
2017-01-21T09:28:21.145Z,4.3
2017-01-21T09:29:27.169Z,4.2
2017-01-21T09:30:33.187Z,4.3
2017-01-21T09:31:39.200Z,4.3
2017-01-21T09:32:45.224Z,4.3
2017-01-21T09:33:51.245Z,4.4
2017-01-21T09:34:57.280Z,4.3
2017-01-21T09:36:03.296Z,4.2
2017-01-21T09:37:09.327Z,4.3
2017-01-21T09:38:15.341Z,4.4
2017-01-21T09:39:21.357Z,4.2
2017-01-21T09:40:27.375Z,4.4
2017-01-21T09:41:33.405Z,4.5
2017-01-21T09:42:39.417Z,4.3
2017-01-21T09:43:45.440Z,4.2
2017-01-21T09:44:51.465Z,4.4
2017-01-21T09:45:57.490Z,4.3
2017-01-21T09:47:03.500Z,4.1
2017-01-21T09:48:09.529Z,4
2017-01-21T09:49:15.548Z,4.2
2017-01-21T09:50:21.570Z,4.3
2017-01-21T09:51:27.581Z,4.5
2017-01-21T09:52:33.605Z,4.6
2017-01-21T09:53:39.631Z,4.7
2017-01-21T09:54:45.643Z,4.8
2017-01-21T09:55:51.673Z,4.8
2017-01-21T09:56:57.694Z,4.9
2017-01-21T09:58:03.729Z,5
2017-01-21T09:59:09.747Z,5
2017-01-21T10:00:15.768Z,5.1
2017-01-21T10:01:21.793Z,5
2017-01-21T10:02:27.817Z,5.1
2017-01-21T10:03:33.840Z,5.1
2017-01-21T10:04:39.857Z,5
2017-01-21T10:05:46.216Z,4.9
2017-01-21T10:06:52.239Z,4.9
2017-01-21T10:07:58.252Z,4.8
2017-01-21T10:09:04.311Z,4.8
2017-01-21T10:10:10.335Z,4.9
2017-01-21T10:11:16.363Z,4.9
2017-01-21T10:12:22.389Z,4.9
2017-01-21T10:13:28.412Z,5
2017-01-21T10:14:34.438Z,4.9
2017-01-21T10:15:40.456Z,4.7
2017-01-21T10:16:46.516Z,4.8
2017-01-21T10:17:52.529Z,4.9
2017-01-21T10:18:59.002Z,4.5
2017-01-21T10:20:04.568Z,4.7
2017-01-21T10:21:10.587Z,4.8
2017-01-21T10:22:16.612Z,4.8
2017-01-21T10:23:22.630Z,4.9
2017-01-21T10:24:28.657Z,5
2017-01-21T10:25:34.687Z,5.1
2017-01-21T10:26:41.098Z,5.1
2017-01-21T10:27:47.013Z,4.9
2017-01-21T10:28:53.030Z,4.8
2017-01-21T10:29:59.049Z,4.9
2017-01-21T10:31:05.069Z,4.9
2017-01-21T10:32:11.086Z,5.1
2017-01-21T10:33:17.107Z,5.3
2017-01-21T10:34:23.209Z,5.1
2017-01-21T10:35:29.219Z,5
2017-01-21T10:36:35.245Z,4.9
2017-01-21T10:37:41.269Z,4.9
2017-01-21T10:38:47.291Z,5
2017-01-21T10:39:53.316Z,5
2017-01-21T10:40:59.343Z,5
2017-01-21T10:42:05.359Z,5
2017-01-21T10:43:11.390Z,5
2017-01-21T10:44:17.407Z,5
2017-01-21T10:45:23.437Z,5.1
2017-01-21T10:46:29.461Z,4.9
2017-01-21T10:47:35.489Z,5
2017-01-21T10:48:41.507Z,5.1
2017-01-21T10:49:47.524Z,5.2
2017-01-21T10:50:53.542Z,5.3
2017-01-21T10:51:59.580Z,5.3
2017-01-21T10:53:05.584Z,5.3
2017-01-21T10:54:11.606Z,5.4
2017-01-21T10:55:17.634Z,5.5
2017-01-21T10:56:23.661Z,5.5
2017-01-21T10:57:29.676Z,5.5
2017-01-21T10:58:35.703Z,5.5
2017-01-21T10:59:41.727Z,5.5
2017-01-21T11:00:47.748Z,5.5
2017-01-21T11:01:53.755Z,5.4
2017-01-21T11:02:59.776Z,5.4
2017-01-21T11:04:05.794Z,5.1
2017-01-21T11:05:11.812Z,5.2
2017-01-21T11:06:17.842Z,5.2
2017-01-21T11:07:23.859Z,5.3
2017-01-21T11:08:29.884Z,5.3
2017-01-21T11:09:35.902Z,5.3
2017-01-21T11:10:41.922Z,5.4
2017-01-21T11:11:47.948Z,5.5
2017-01-21T11:12:53.970Z,5.5
2017-01-21T11:13:59.992Z,5.6
2017-01-21T11:15:06.010Z,5.7
2017-01-21T11:16:12.050Z,5.5
2017-01-21T11:17:18.056Z,5.5
2017-01-21T11:18:24.082Z,5.4
2017-01-21T11:19:30.098Z,5.4
2017-01-21T11:20:36.125Z,5.3
2017-01-21T11:21:42.144Z,5.1
2017-01-21T11:22:48.167Z,5
2017-01-21T11:23:54.194Z,5
2017-01-21T11:25:00.225Z,5.2
2017-01-21T11:26:06.237Z,5.4
2017-01-21T11:27:12.258Z,5.4
2017-01-21T11:28:18.283Z,5.3
2017-01-21T11:29:24.306Z,5.3
2017-01-21T11:30:30.338Z,5.4
2017-01-21T11:31:36.354Z,5.2
2017-01-21T11:32:42.374Z,5.2
2017-01-21T11:33:48.398Z,5.3
2017-01-21T11:34:54.419Z,5.4
2017-01-21T11:36:00.437Z,5.5
2017-01-21T11:37:06.461Z,5.6
2017-01-21T11:38:12.487Z,5.3
2017-01-21T11:39:18.503Z,5.4
2017-01-21T11:40:24.528Z,5.4
2017-01-21T11:41:30.552Z,5.4
2017-01-21T11:42:36.588Z,5.2
2017-01-21T11:43:42.594Z,5.4
2017-01-21T11:44:48.612Z,5.4
2017-01-21T11:45:54.638Z,5.2
2017-01-21T11:47:00.656Z,5.1
2017-01-21T11:48:06.665Z,5.1
2017-01-21T11:49:12.684Z,5
2017-01-21T11:50:18.713Z,5.2
2017-01-21T11:51:24.734Z,5.3
2017-01-21T11:52:30.753Z,5.4
2017-01-21T11:53:36.774Z,5.4
2017-01-21T11:54:42.135Z,5.3
2017-01-21T11:55:48.160Z,5.4
2017-01-21T11:56:54.186Z,5.5
2017-01-21T11:58:00.205Z,5.6
2017-01-21T11:59:06.223Z,5.7
2017-01-21T12:00:12.245Z,5.4
2017-01-21T12:01:18.260Z,5.5
2017-01-21T12:02:24.287Z,5.5
2017-01-21T12:03:30.306Z,5.5
2017-01-21T12:04:36.328Z,5.4
2017-01-21T12:05:42.359Z,5.4
2017-01-21T12:06:48.380Z,5.6
2017-01-21T12:07:54.398Z,5.6
2017-01-21T12:09:00.415Z,5.5
2017-01-21T12:10:06.431Z,5.2
2017-01-21T12:11:12.450Z,5.3
2017-01-21T12:12:18.482Z,5.2
2017-01-21T12:13:24.499Z,5.2
2017-01-21T12:14:30.516Z,5.3
2017-01-21T12:15:36.539Z,5.3
2017-01-21T12:16:42.550Z,5.1
2017-01-21T12:17:48.579Z,5.1
2017-01-21T12:18:54.595Z,4.9
2017-01-21T12:20:00.620Z,5.1
2017-01-21T12:21:06.634Z,5.3
2017-01-21T12:22:12.656Z,5.3
2017-01-21T12:23:18.681Z,5.3
2017-01-21T12:24:24.707Z,5.3
2017-01-21T12:25:30.719Z,5.3
2017-01-21T12:26:36.744Z,5.3
2017-01-21T12:27:42.763Z,5.4
2017-01-21T12:28:48.787Z,5.3
2017-01-21T12:29:54.801Z,5.3
2017-01-21T12:31:00.826Z,5.2
2017-01-21T12:32:06.850Z,5.2
2017-01-21T12:33:12.869Z,5.3
2017-01-21T12:34:18.888Z,5.4
2017-01-21T12:35:24.907Z,5.5
2017-01-21T12:36:30.929Z,5.6
2017-01-21T12:37:36.946Z,5.8
2017-01-21T12:38:42.973Z,5.8
2017-01-21T12:39:49.000Z,5.6
2017-01-21T12:40:55.025Z,5.5
2017-01-21T12:42:01.036Z,5.5
2017-01-21T12:43:07.066Z,5.4
2017-01-21T12:44:13.097Z,5.5
2017-01-21T12:45:19.109Z,5.5
2017-01-21T12:46:25.131Z,5.5
2017-01-21T12:47:31.151Z,5.3
2017-01-21T12:48:37.180Z,5.4
2017-01-21T12:49:43.195Z,5.4
2017-01-21T12:50:49.216Z,5.4
2017-01-21T12:51:55.239Z,5.6
2017-01-21T12:53:01.269Z,5.5
2017-01-21T12:54:07.280Z,5.5
2017-01-21T12:55:13.307Z,5.5
2017-01-21T12:56:19.321Z,5.4
2017-01-21T12:57:25.336Z,5.4
2017-01-21T12:58:31.364Z,5.3
2017-01-21T12:59:37.385Z,5.3
2017-01-21T13:00:43.411Z,5.2
2017-01-21T13:01:49.426Z,5
2017-01-21T13:02:55.447Z,5
2017-01-21T13:04:01.471Z,5.1
2017-01-21T13:05:07.495Z,5.3
2017-01-21T13:06:13.504Z,5.5
2017-01-21T13:07:19.523Z,5.6
2017-01-21T13:08:25.546Z,5.6
2017-01-21T13:09:31.571Z,5.5
2017-01-21T13:10:37.599Z,5.5
2017-01-21T13:11:43.613Z,5.3
2017-01-21T13:12:49.641Z,5.2
2017-01-21T13:13:55.663Z,5.2
2017-01-21T13:15:01.683Z,5.3
2017-01-21T13:16:07.701Z,5.5
2017-01-21T13:17:13.725Z,5.4
2017-01-21T13:18:19.750Z,5.5
2017-01-21T13:19:25.778Z,5.6
2017-01-21T13:20:31.795Z,5.6
2017-01-21T13:21:37.812Z,5.7
2017-01-21T13:22:43.830Z,5.8
2017-01-21T13:23:49.847Z,5.8
2017-01-21T13:24:55.874Z,5.7
2017-01-21T13:26:01.894Z,5.5
2017-01-21T13:27:07.916Z,5.4
2017-01-21T13:28:13.938Z,5.4
2017-01-21T13:29:19.969Z,5.3
2017-01-21T13:30:25.977Z,5.2
2017-01-21T13:31:32.000Z,5.1
2017-01-21T13:32:38.021Z,5.1
2017-01-21T13:33:44.043Z,5.2
2017-01-21T13:34:50.069Z,5.2
2017-01-21T13:35:56.094Z,5.2
2017-01-21T13:37:02.114Z,5.2
2017-01-21T13:38:08.136Z,5.4
2017-01-21T13:39:14.156Z,5.4
2017-01-21T13:40:19.510Z,5.5
2017-01-21T13:41:25.535Z,5.6
2017-01-21T13:42:31.555Z,5.6
2017-01-21T13:43:37.585Z,5.6
2017-01-21T13:44:43.603Z,5.5
2017-01-21T13:45:49.626Z,5.6
2017-01-21T13:46:55.647Z,5.5
2017-01-21T13:48:01.867Z,5.5
2017-01-21T13:49:07.893Z,5.5
2017-01-21T13:50:13.910Z,5.5
2017-01-21T13:51:19.927Z,5.5
2017-01-21T13:52:25.946Z,5.5
2017-01-21T13:53:31.970Z,5.3
2017-01-21T13:54:38.337Z,5.3
2017-01-21T13:55:44.662Z,5.3
2017-01-21T13:56:51.937Z,5
2017-01-21T13:57:56.534Z,5
2017-01-21T13:59:02.940Z,5.2
2017-01-21T14:00:08.241Z,5.2
2017-01-21T14:01:12.950Z,5.2
2017-01-21T14:02:20.776Z,5.3
2017-01-21T14:03:26.007Z,5
2017-01-21T14:04:30.798Z,5
2017-01-21T14:05:35.284Z,5.1
2017-01-21T14:06:39.576Z,5.1
2017-01-21T14:07:44.196Z,5.2
2017-01-21T14:08:47.977Z,5.2
2017-01-21T14:09:54.083Z,5.2
2017-01-21T14:10:57.946Z,5.1
2017-01-21T14:12:04.314Z,5.2
2017-01-21T14:13:08.577Z,5.3
2017-01-21T14:14:12.632Z,5.3
2017-01-21T14:15:16.970Z,5.1
2017-01-21T14:16:21.545Z,5.2
2017-01-21T14:17:25.776Z,5.3
2017-01-21T14:18:29.675Z,5.3
2017-01-21T14:19:36.013Z,5.4
2017-01-21T14:20:42.204Z,5.3
2017-01-21T14:21:48.282Z,5.2
2017-01-21T14:22:54.511Z,5.2
2017-01-21T14:24:00.757Z,5.3
2017-01-21T14:25:06.884Z,5.3
2017-01-21T14:26:13.090Z,5.3
2017-01-21T14:27:19.158Z,5.2
2017-01-21T14:28:24.685Z,5
2017-01-21T14:29:30.789Z,5
2017-01-21T14:30:36.917Z,4.9
2017-01-21T14:31:42.982Z,4.9
2017-01-21T14:32:49.006Z,4.9
2017-01-21T14:33:55.023Z,4.9
2017-01-21T14:35:01.047Z,5
2017-01-21T14:36:07.069Z,5.2
2017-01-21T14:37:13.089Z,5.3
2017-01-21T14:38:19.097Z,5.3
2017-01-21T14:39:25.129Z,5.3
2017-01-21T14:40:31.167Z,5.4
2017-01-21T14:41:37.183Z,5.5
2017-01-21T14:42:43.198Z,5.3
2017-01-21T14:43:49.208Z,5
2017-01-21T14:44:55.227Z,5
2017-01-21T14:46:01.243Z,5.2
2017-01-21T14:47:07.265Z,5.2
2017-01-21T14:48:13.282Z,5
2017-01-21T14:49:19.299Z,5.1
2017-01-21T14:50:25.319Z,5.1
2017-01-21T14:51:31.349Z,5.2
2017-01-21T14:52:37.372Z,5.2
2017-01-21T14:53:43.392Z,5.2
2017-01-21T14:54:49.413Z,5
2017-01-21T14:55:55.429Z,4.9
2017-01-21T14:57:01.448Z,5.1
2017-01-21T14:58:07.468Z,5.1
2017-01-21T14:59:13.488Z,5.1
2017-01-21T15:00:19.513Z,5.2
2017-01-21T15:01:25.539Z,5.2
2017-01-21T15:02:31.609Z,5.1
2017-01-21T15:03:37.626Z,4.9
2017-01-21T15:04:43.644Z,5
2017-01-21T15:05:49.669Z,5
2017-01-21T15:06:55.693Z,5
2017-01-21T15:08:01.719Z,5
2017-01-21T15:09:07.746Z,5
2017-01-21T15:10:13.767Z,5
2017-01-21T15:11:19.791Z,5.1
2017-01-21T15:12:25.817Z,5.1
2017-01-21T15:13:31.842Z,5.1
2017-01-21T15:14:37.860Z,5.1
2017-01-21T15:15:43.880Z,5.1
2017-01-21T15:16:49.905Z,5